Time;durP1;ratioP1;P1;durP2;ratioP2;P2;SDS_P1;SDS_P2;PMS_P1;PMS_P2;Temp;Humidity;BMP_temperature;BMP_pressure;BME280_temperature;BME280_humidity;BME280_pressure;Samples;Min_cycle;Max_cycle;Signal;HPM_P1;HPM_P2
2022/06/26 00:00:28;;;;;;;7.07;4.30;;;21.40;99.90;;;;;;4956980;29;20187;-79
2022/06/26 00:02:54;;;;;;;6.13;5.13;;;21.30;99.90;;;;;;4957363;29;20186;-79
2022/06/26 00:05:20;;;;;;;5.93;4.50;;;21.30;99.90;;;;;;4957349;29;20434;-78
2022/06/26 00:07:46;;;;;;;5.20;4.03;;;21.30;99.90;;;;;;4957325;29;20186;-81
2022/06/26 00:10:11;;;;;;;5.37;4.93;;;21.30;99.90;;;;;;4957312;29;20219;-81
2022/06/26 00:12:37;;;;;;;7.93;4.60;;;21.30;99.90;;;;;;4939939;29;20524;-81
2022/06/26 00:15:03;;;;;;;5.47;4.97;;;21.30;99.90;;;;;;4957209;29;20189;-80
2022/06/26 00:17:29;;;;;;;5.00;4.57;;;21.30;99.90;;;;;;4957076;29;20639;-81
2022/06/26 00:19:54;;;;;;;4.70;4.30;;;21.30;99.90;;;;;;4956925;29;20309;-80
2022/06/26 00:22:20;;;;;;;5.53;4.33;;;21.30;99.90;;;;;;4957078;29;20182;-78
2022/06/26 00:24:46;;;;;;;4.90;4.43;;;21.40;99.90;;;;;;4956940;29;20241;-78
2022/06/26 00:27:12;;;;;;;5.63;4.47;;;21.50;99.90;;;;;;4956867;29;20182;-78
2022/06/26 00:29:37;;;;;;;6.13;4.90;;;21.50;99.90;;;;;;4939586;29;20189;-79
2022/06/26 00:32:05;;;;;;;8.90;7.33;;;21.70;99.90;;;;;;4956416;29;20309;-79
2022/06/26 00:34:31;;;;;;;6.67;6.07;;;21.80;99.90;;;;;;4956751;29;20201;-78
2022/06/26 00:36:57;;;;;;;6.90;6.23;;;21.80;99.90;;;;;;4956828;29;20422;-78
2022/06/26 00:39:23;;;;;;;9.63;7.43;;;21.60;99.90;;;;;;4939307;29;20855;-78
2022/06/26 00:41:51;;;;;;;9.20;8.30;;;21.70;99.90;;;;;;4956627;29;20178;-79
2022/06/26 00:44:24;;;;;;;13.73;9.90;;;21.70;99.90;;;;;;4956587;29;20438;-78
2022/06/26 00:46:51;;;;;;;18.13;11.07;;;21.60;99.90;;;;;;4956522;29;20418;-76
2022/06/26 00:49:17;;;;;;;10.77;9.70;;;21.50;99.90;;;;;;4956461;29;20729;-77
2022/06/26 00:51:52;;;;;;;12.50;11.30;;;21.50;99.90;;;;;;4956436;29;20430;-77
2022/06/26 00:54:19;;;;;;;15.23;13.73;;;21.50;99.90;;;;;;4956341;29;20437;-78
2022/06/26 00:56:45;;;;;;;15.30;13.80;;;21.50;99.90;;;;;;4956288;29;20437;-78
2022/06/26 00:59:11;;;;;;;15.60;14.07;;;21.40;99.90;;;;;;4955950;29;20482;-77
2022/06/26 01:01:36;;;;;;;13.60;12.37;;;21.30;99.90;;;;;;4956286;29;20190;-77
2022/06/26 01:04:03;;;;;;;13.60;11.90;;;21.20;99.90;;;;;;4956422;29;20186;-78
2022/06/26 01:06:29;;;;;;;15.30;12.27;;;21.10;99.90;;;;;;4955679;28;20265;-78
2022/06/26 01:08:59;;;;;;;14.50;13.03;;;21.10;99.90;;;;;;4955913;29;20964;-78
2022/06/26 01:11:25;;;;;;;13.60;12.50;;;21.10;99.90;;;;;;4956072;29;20436;-79
2022/06/26 01:13:53;;;;;;;13.63;12.23;;;21.10;99.90;;;;;;4956084;29;20410;-79
2022/06/26 01:16:20;;;;;;;12.67;11.57;;;21.10;99.90;;;;;;4955924;29;20432;-79
2022/06/26 01:18:50;;;;;;;13.20;11.97;;;21.00;99.90;;;;;;4955722;29;20497;-79
2022/06/26 01:21:17;;;;;;;13.43;12.10;;;21.00;99.90;;;;;;4955908;29;20949;-79
2022/06/26 01:23:42;;;;;;;13.20;11.90;;;21.00;99.90;;;;;;4955814;29;20501;-78
2022/06/26 04:30:17;;;;;;;11.70;10.53;;;20.00;99.90;;;;;;6024424;23;20434;31
2022/06/26 04:32:43;;;;;;;13.23;11.50;;;20.00;99.90;;;;;;4917886;29;20494;-84
2022/06/26 04:35:09;;;;;;;12.60;11.30;;;20.00;99.90;;;;;;4919704;29;20428;-84
2022/06/26 04:37:36;;;;;;;12.97;11.60;;;20.10;99.90;;;;;;4919281;29;20187;-82
2022/06/26 04:40:04;;;;;;;12.33;10.90;;;20.10;99.90;;;;;;4918873;29;20483;-82
2022/06/26 04:42:29;;;;;;;12.37;10.97;;;20.10;99.90;;;;;;4918182;29;20784;-81
2022/06/26 04:44:55;;;;;;;12.47;10.57;;;20.20;99.90;;;;;;4919108;29;20424;-79
2022/06/26 04:47:20;;;;;;;12.20;10.03;;;20.20;99.90;;;;;;4919366;29;20262;-80
2022/06/26 04:49:47;;;;;;;10.57;9.47;;;20.20;99.90;;;;;;4919559;29;20296;-84
2022/06/26 04:52:13;;;;;;;10.27;9.30;;;20.20;99.90;;;;;;4918886;29;20172;-78
2022/06/26 04:54:39;;;;;;;12.30;8.67;;;20.30;99.90;;;;;;4918581;29;20522;-80
2022/06/26 04:57:05;;;;;;;10.87;9.80;;;20.30;99.90;;;;;;4918682;29;20511;-79
2022/06/26 04:59:30;;;;;;;9.90;8.90;;;20.30;99.90;;;;;;4918480;29;20739;-79
2022/06/26 05:01:56;;;;;;;10.03;7.83;;;20.20;99.90;;;;;;4918426;29;20530;-79
2022/06/26 05:04:21;;;;;;;9.27;8.30;;;20.10;99.90;;;;;;4918885;29;20457;-82
2022/06/26 05:06:47;;;;;;;8.17;7.37;;;20.20;99.90;;;;;;4918841;29;20263;-78
2022/06/26 05:09:12;;;;;;;9.83;8.10;;;20.20;99.90;;;;;;4918191;29;20175;-78
2022/06/26 05:11:40;;;;;;;8.17;7.47;;;20.30;99.90;;;;;;4918205;29;20198;-77
2022/06/26 05:14:05;;;;;;;9.07;7.83;;;20.40;99.90;;;;;;4918143;29;20176;-77
2022/06/26 05:16:31;;;;;;;7.60;6.93;;;20.40;99.90;;;;;;4918088;29;20823;-78
2022/06/26 05:18:56;;;;;;;7.70;7.00;;;20.50;99.90;;;;;;4918146;29;20219;-79
2022/06/26 05:21:22;;;;;;;7.60;6.80;;;20.50;99.90;;;;;;4918546;29;20666;-81
2022/06/26 05:23:47;;;;;;;8.00;6.97;;;20.60;99.90;;;;;;4918470;29;20207;-81
2022/06/26 05:26:13;;;;;;;6.63;6.03;;;20.70;99.90;;;;;;4918642;29;20210;-80
2022/06/26 05:28:39;;;;;;;10.63;7.50;;;20.80;99.90;;;;;;4917903;29;20179;-80
2022/06/26 05:31:05;;;;;;;7.10;5.73;;;20.80;99.90;;;;;;4917821;29;20231;-79
2022/06/26 05:33:30;;;;;;;6.67;6.00;;;20.90;99.90;;;;;;4917661;29;20183;-77
2022/06/26 05:35:56;;;;;;;6.90;5.87;;;21.00;99.90;;;;;;4917811;29;21007;-78
2022/06/26 05:38:21;;;;;;;6.00;5.50;;;21.00;99.90;;;;;;4917511;29;20434;-80
2022/06/26 05:40:47;;;;;;;5.90;5.30;;;21.10;99.90;;;;;;4916844;29;20430;-85
2022/06/26 05:43:12;;;;;;;5.60;5.00;;;21.20;99.90;;;;;;4917911;29;20231;-78
2022/06/26 05:45:38;;;;;;;6.43;4.50;;;21.30;99.90;;;;;;4917568;29;20620;-80
2022/06/26 05:48:04;;;;;;;6.43;5.40;;;21.30;99.90;;;;;;4917587;29;20270;-79
2022/06/26 05:50:29;;;;;;;5.40;4.90;;;21.30;99.90;;;;;;4917568;29;20183;-79
2022/06/26 05:52:55;;;;;;;4.93;4.60;;;21.20;99.90;;;;;;4917326;29;20187;-75
2022/06/26 05:55:21;;;;;;;5.13;4.70;;;21.30;99.90;;;;;;4917355;29;20188;-76
2022/06/26 05:57:47;;;;;;;6.50;5.30;;;21.30;99.90;;;;;;4917242;29;20420;-76
2022/06/26 06:00:13;;;;;;;7.57;5.20;;;21.20;99.90;;;;;;4917282;29;20733;-75
2022/06/26 06:02:39;;;;;;;7.43;5.27;;;21.00;99.90;;;;;;4917320;29;20521;-76
2022/06/26 06:05:05;;;;;;;6.20;5.60;;;21.00;99.90;;;;;;4917307;29;20438;-76
2022/06/26 06:07:30;;;;;;;6.30;5.73;;;21.00;99.90;;;;;;4917094;29;20990;-76
2022/06/26 06:09:56;;;;;;;6.00;5.20;;;21.00;99.90;;;;;;4917298;29;20270;-75
2022/06/26 06:12:21;;;;;;;9.10;6.23;;;21.00;99.90;;;;;;4916576;29;20178;-74
2022/06/26 06:14:47;;;;;;;6.97;4.93;;;21.00;99.90;;;;;;4916067;29;20184;-76
2022/06/26 06:19:56;;;;;;;5.30;4.83;;;21.00;99.90;;;;;;4916254;29;20222;-75
2022/06/26 06:22:22;;;;;;;6.93;5.60;;;21.00;99.90;;;;;;4916141;29;20446;-76
2022/06/26 06:24:47;;;;;;;6.83;4.50;;;21.10;99.90;;;;;;4899005;29;20187;-77
2022/06/26 06:27:13;;;;;;;6.33;5.73;;;21.10;99.90;;;;;;4916169;29;20184;-80
2022/06/26 06:29:38;;;;;;;7.40;6.00;;;21.10;99.90;;;;;;4915825;29;20514;-86
2022/06/26 06:32:04;;;;;;;7.63;6.67;;;21.10;99.90;;;;;;4916103;29;20257;-84
2022/06/26 06:34:30;;;;;;;10.13;5.90;;;21.10;99.90;;;;;;4916971;29;20699;-84
2022/06/26 06:36:56;;;;;;;8.50;6.80;;;21.10;99.90;;;;;;4916791;29;20491;-78
2022/06/26 06:39:21;;;;;;;6.77;6.17;;;21.20;99.90;;;;;;4916218;29;20218;-78
2022/06/26 06:41:47;;;;;;;5.63;5.13;;;21.10;99.90;;;;;;4915849;29;20611;-78
2022/06/26 06:44:12;;;;;;;8.83;6.00;;;21.00;99.90;;;;;;4916010;29;20183;-78
2022/06/26 06:46:38;;;;;;;7.90;5.37;;;21.00;99.90;;;;;;4915952;29;20190;-78
2022/06/26 06:49:03;;;;;;;5.53;5.03;;;21.00;99.90;;;;;;4912330;29;20195;-79
2022/06/26 06:51:29;;;;;;;8.20;5.57;;;20.90;99.90;;;;;;4905280;29;20533;-79
2022/06/26 06:53:54;;;;;;;7.73;5.17;;;20.90;99.90;;;;;;4907076;29;20171;-80
2022/06/26 06:56:20;;;;;;;5.80;5.23;;;21.00;99.90;;;;;;4912322;29;20590;-78
2022/06/26 06:58:45;;;;;;;5.80;5.27;;;20.90;99.90;;;;;;4919861;29;20207;-81
2022/06/26 07:01:11;;;;;;;6.33;4.17;;;20.90;99.90;;;;;;4915425;29;20670;-79
2022/06/26 07:03:36;;;;;;;7.43;5.73;;;20.90;99.90;;;;;;4924044;29;20167;-86
2022/06/26 07:06:02;;;;;;;4.67;4.27;;;20.90;99.90;;;;;;4926463;29;20195;-80
2022/06/26 07:08:28;;;;;;;5.00;4.33;;;20.90;99.90;;;;;;4920285;29;20194;-80
2022/06/26 07:10:53;;;;;;;5.73;4.17;;;20.90;99.90;;;;;;4919528;29;20511;-81
2022/06/26 07:13:19;;;;;;;6.83;3.60;;;20.90;99.90;;;;;;4919768;29;20188;-79
2022/06/26 07:15:44;;;;;;;5.83;4.53;;;20.90;99.90;;;;;;4919206;29;20176;-79
2022/06/26 07:18:10;;;;;;;3.90;3.50;;;20.90;99.90;;;;;;4919267;29;20259;-80
2022/06/26 07:20:35;;;;;;;5.03;4.57;;;20.90;99.90;;;;;;4919144;29;20270;-82
2022/06/26 07:23:01;;;;;;;4.33;3.93;;;20.90;99.90;;;;;;4919354;29;20176;-81
2022/06/26 07:25:27;;;;;;;4.57;4.17;;;21.00;99.90;;;;;;4919178;29;20176;-79
2022/06/26 07:27:53;;;;;;;5.20;3.67;;;21.00;99.90;;;;;;4919190;29;20179;-79
2022/06/26 07:30:19;;;;;;;5.40;4.70;;;20.90;99.90;;;;;;4919073;29;20180;-81
2022/06/26 07:32:45;;;;;;;5.87;5.27;;;20.80;99.90;;;;;;4919064;29;20443;-81
2022/06/26 07:35:11;;;;;;;6.83;6.00;;;20.80;99.90;;;;;;4919517;29;20434;-82
2022/06/26 07:37:36;;;;;;;7.60;5.10;;;20.80;99.90;;;;;;4902394;29;20184;-80
2022/06/26 07:40:04;;;;;;;6.50;5.80;;;20.80;99.90;;;;;;4919234;29;20494;-86
2022/06/26 07:42:29;;;;;;;5.80;5.27;;;20.80;99.90;;;;;;4919171;29;20650;-83
2022/06/26 07:44:55;;;;;;;6.27;4.50;;;20.80;99.90;;;;;;4919085;29;20436;-80
2022/06/26 07:47:20;;;;;;;6.03;4.67;;;20.80;99.90;;;;;;4918590;29;20180;-75
2022/06/26 07:49:46;;;;;;;9.00;4.00;;;20.90;99.90;;;;;;4918189;29;20186;-77
2022/06/26 07:52:11;;;;;;;6.33;4.00;;;21.20;99.90;;;;;;4918676;29;20176;-78
2022/06/26 07:54:37;;;;;;;6.60;4.23;;;21.20;99.90;;;;;;4918435;29;20188;-76
2022/06/26 07:57:03;;;;;;;4.77;3.37;;;21.30;99.90;;;;;;4917966;29;20656;-73
2022/06/26 07:59:28;;;;;;;3.93;3.63;;;21.50;99.90;;;;;;4907347;29;20215;-74
2022/06/26 08:01:54;;;;;;;5.20;4.20;;;21.60;99.90;;;;;;4908334;29;20195;-74
2022/06/26 08:04:19;;;;;;;4.27;3.87;;;21.60;99.90;;;;;;4906771;29;20180;-74
2022/06/26 08:06:45;;;;;;;8.00;3.70;;;21.50;99.90;;;;;;4907569;29;20176;-74
2022/06/26 08:09:10;;;;;;;4.00;3.70;;;21.50;99.90;;;;;;4906582;29;20189;-86
2022/06/26 08:11:36;;;;;;;3.70;3.40;;;21.60;99.90;;;;;;4899927;29;20191;-79
2022/06/26 08:14:01;;;;;;;8.70;4.27;;;21.60;99.90;;;;;;4899323;29;20704;-76
2022/06/26 08:16:27;;;;;;;6.20;4.50;;;21.70;99.90;;;;;;4899541;29;20177;-78
2022/06/26 08:18:52;;;;;;;5.27;4.77;;;21.80;99.90;;;;;;4900248;29;20212;-76
2022/06/26 08:24:02;;;;;;;6.57;6.07;;;22.00;99.90;;;;;;4900473;29;20191;-80
2022/06/26 08:26:28;;;;;;;11.07;6.10;;;22.20;99.90;;;;;;4899885;29;20437;-76
2022/06/26 08:29:03;;;;;;;6.57;6.10;;;22.20;99.90;;;;;;4900019;29;20544;-77
2022/06/26 08:31:28;;;;;;;7.03;6.43;;;22.10;99.90;;;;;;4898576;29;20229;-76
2022/06/26 08:33:54;;;;;;;9.30;5.70;;;22.10;99.90;;;;;;4899972;29;20440;-78
2022/06/26 08:36:19;;;;;;;7.73;6.10;;;22.10;99.90;;;;;;4899888;29;20260;-79
2022/06/26 08:38:45;;;;;;;6.40;5.87;;;22.10;99.90;;;;;;4899655;29;20310;-79
2022/06/26 08:41:12;;;;;;;6.97;6.30;;;22.20;99.90;;;;;;4899842;29;20181;-76
2022/06/26 08:43:41;;;;;;;5.80;5.30;;;22.10;99.90;;;;;;4898416;29;20523;-77
2022/06/26 08:46:07;;;;;;;5.07;4.67;;;22.10;99.90;;;;;;4915465;29;20828;-78
2022/06/26 08:48:42;;;;;;;4.60;4.10;;;22.00;99.90;;;;;;4901162;29;20802;-77
2022/06/26 08:51:11;;;;;;;4.10;3.10;;;21.90;99.90;;;;;;4899750;29;20459;-75
2022/06/26 08:53:38;;;;;;;3.57;3.23;;;21.90;99.90;;;;;;4898259;29;20431;-75
2022/06/26 08:56:04;;;;;;;4.97;3.27;;;21.90;99.90;;;;;;4899590;29;20774;-75
2022/06/26 08:58:29;;;;;;;3.00;2.80;;;22.00;99.90;;;;;;4899557;29;20519;-75
2022/06/26 09:00:55;;;;;;;4.93;3.00;;;21.90;99.90;;;;;;4899247;29;20541;-75
2022/06/26 09:03:21;;;;;;;4.43;3.13;;;21.90;99.90;;;;;;4899259;29;20263;-76
2022/06/26 09:05:46;;;;;;;4.20;3.00;;;21.90;99.90;;;;;;4899337;29;20584;-79
2022/06/26 09:08:20;;;;;;;5.47;3.43;;;22.00;99.90;;;;;;4899410;29;20460;-80
2022/06/26 09:10:48;;;;;;;5.73;3.30;;;22.00;99.90;;;;;;4897917;29;20260;-77
2022/06/26 09:13:14;;;;;;;5.20;3.60;;;22.10;99.90;;;;;;4899185;29;20424;-83
2022/06/26 09:15:41;;;;;;;3.17;2.97;;;22.00;99.90;;;;;;4899636;29;20479;-85
2022/06/26 09:18:09;;;;;;;3.40;3.00;;;22.00;99.90;;;;;;4899498;29;20790;-83
2022/06/26 09:20:37;;;;;;;3.87;3.10;;;21.90;99.90;;;;;;4898966;29;20480;-77
2022/06/26 09:23:05;;;;;;;3.90;3.27;;;21.90;99.90;;;;;;4899046;29;20424;-76
2022/06/26 09:25:37;;;;;;;3.90;3.60;;;21.90;99.90;;;;;;4898965;29;20437;-76
2022/06/26 09:28:18;;;;;;;3.63;3.33;;;22.00;99.90;;;;;;4898392;29;20429;-76
2022/06/26 09:30:56;;;;;;;4.30;3.50;;;22.00;99.90;;;;;;4898741;29;20461;-76
2022/06/26 09:33:28;;;;;;;3.80;3.50;;;22.00;99.90;;;;;;4898873;29;20436;-84
2022/06/26 09:35:55;;;;;;;3.37;3.17;;;21.90;99.90;;;;;;4905598;29;20471;-79
2022/06/26 09:38:23;;;;;;;4.70;4.30;;;21.90;99.90;;;;;;4907896;29;20456;-80
2022/06/26 09:40:59;;;;;;;3.57;3.27;;;21.90;99.90;;;;;;4906864;29;20551;-79
2022/06/26 09:43:39;;;;;;;4.33;3.73;;;21.90;99.90;;;;;;4907182;29;20435;-77
2022/06/26 09:46:08;;;;;;;3.67;3.37;;;21.80;99.90;;;;;;4908805;29;20838;-80
2022/06/26 09:48:34;;;;;;;3.67;3.37;;;21.80;99.90;;;;;;4908483;29;20443;-78
2022/06/26 09:51:02;;;;;;;3.00;2.73;;;21.80;99.90;;;;;;4907476;29;20437;-76
2022/06/26 09:53:30;;;;;;;2.50;2.30;;;21.70;99.90;;;;;;4906635;29;20483;-77
2022/06/26 09:55:57;;;;;;;3.33;2.60;;;21.60;99.90;;;;;;4908307;29;20515;-79
2022/06/26 09:58:24;;;;;;;3.60;2.97;;;21.70;99.90;;;;;;4908448;29;20447;-78
2022/06/26 10:06:27;;;;;;;3.67;2.60;;;21.70;99.90;;;;;;4908644;29;20430;-79
2022/06/26 10:09:01;;;;;;;3.00;2.57;;;21.70;99.90;;;;;;4908408;29;20440;-80
2022/06/26 10:11:30;;;;;;;5.13;2.80;;;21.70;99.90;;;;;;4907992;29;20813;-76
2022/06/26 10:14:13;;;;;;;4.00;2.30;;;21.70;99.90;;;;;;4906753;29;20440;-81
2022/06/26 10:17:09;;;;;;;2.80;1.97;;;21.60;99.90;;;;;;4908412;29;20451;-80
2022/06/26 10:19:45;;;;;;;3.60;2.00;;;21.60;99.90;;;;;;4908432;29;20480;-80
2022/06/26 10:22:14;;;;;;;2.80;2.07;;;21.50;99.90;;;;;;4908218;29;20435;-77
2022/06/26 10:24:55;;;;;;;3.03;2.10;;;21.60;99.90;;;;;;4906894;29;20455;-80
2022/06/26 10:27:28;;;;;;;3.70;2.07;;;21.50;99.90;;;;;;4908095;29;20435;-79
2022/06/26 10:30:15;;;;;;;2.80;2.13;;;21.50;99.90;;;;;;4908175;29;20805;-74
2022/06/26 10:32:41;;;;;;;4.83;2.77;;;21.40;99.90;;;;;;4897765;29;20483;-73
2022/06/26 10:35:08;;;;;;;2.63;2.20;;;21.40;99.90;;;;;;4897949;29;20928;-80
2022/06/26 10:37:47;;;;;;;2.93;1.93;;;21.40;99.90;;;;;;4896871;29;20436;-80
2022/06/26 10:43:17;;;;;;;1.90;1.57;;;21.40;99.90;;;;;;4919742;29;20439;-77
2022/06/26 10:45:43;;;;;;;2.90;2.20;;;21.50;99.90;;;;;;4919653;29;20414;-76
2022/06/26 10:48:20;;;;;;;3.40;1.90;;;21.40;99.90;;;;;;4919710;29;20522;-75
2022/06/26 10:50:59;;;;;;;2.63;2.43;;;21.50;99.90;;;;;;4919582;29;20423;-76
2022/06/26 10:53:29;;;;;;;3.83;1.80;;;21.50;99.90;;;;;;4919545;29;20431;-76
2022/06/26 10:56:01;;;;;;;2.40;1.70;;;21.60;99.90;;;;;;4919567;29;20467;-75
2022/06/26 10:58:33;;;;;;;7.30;2.67;;;21.70;99.90;;;;;;4909957;29;20428;-76
2022/06/26 11:01:01;;;;;;;4.90;2.00;;;21.80;99.90;;;;;;4899379;29;20990;-77
2022/06/26 11:03:28;;;;;;;2.33;2.00;;;21.80;99.90;;;;;;4900649;29;20429;-77
2022/06/26 11:05:55;;;;;;;3.10;2.20;;;21.80;99.90;;;;;;4905405;29;20440;-77
2022/06/26 11:08:25;;;;;;;2.23;1.60;;;21.90;99.90;;;;;;4909713;29;20171;-79
2022/06/26 11:10:50;;;;;;;3.13;2.20;;;22.00;99.90;;;;;;4910753;29;20899;-80
2022/06/26 11:13:16;;;;;;;2.53;2.20;;;22.20;99.90;;;;;;4909108;29;20437;-79
2022/06/26 11:15:43;;;;;;;4.87;1.93;;;22.30;99.90;;;;;;4911874;29;20191;-79
2022/06/26 11:18:09;;;;;;;6.03;2.37;;;22.40;99.90;;;;;;4913609;29;20214;-79
2022/06/26 11:20:50;;;;;;;2.73;2.47;;;22.50;99.90;;;;;;4918067;29;20519;-79
2022/06/26 11:23:19;;;;;;;3.63;2.40;;;22.60;99.90;;;;;;4917939;29;20184;-80
2022/06/26 11:25:53;;;;;;;3.03;2.00;;;22.70;99.90;;;;;;4917890;29;20483;-79
2022/06/26 11:28:19;;;;;;;2.87;1.77;;;22.70;99.90;;;;;;4918199;29;20443;-80
2022/06/26 11:30:47;;;;;;;2.60;2.10;;;22.80;99.90;;;;;;4917496;29;20463;-79
2022/06/26 11:33:21;;;;;;;3.27;1.57;;;22.80;99.90;;;;;;4918800;29;20572;-80
2022/06/26 11:35:46;;;;;;;2.80;1.90;;;22.90;99.90;;;;;;4919386;29;20432;-80
2022/06/26 11:38:14;;;;;;;3.13;2.60;;;23.00;99.90;;;;;;4918851;29;20498;-79
2022/06/26 11:40:41;;;;;;;2.30;2.00;;;23.10;99.90;;;;;;4918780;29;20227;-79
2022/06/26 11:43:08;;;;;;;5.00;2.77;;;23.10;99.90;;;;;;4918917;29;20431;-79
2022/06/26 11:45:34;;;;;;;2.93;2.70;;;23.10;99.90;;;;;;4918643;29;20998;-78
2022/06/26 11:48:01;;;;;;;3.07;2.77;;;23.10;99.90;;;;;;4918949;29;20427;-79
2022/06/26 11:50:32;;;;;;;1.90;1.70;;;23.20;99.90;;;;;;4918739;29;20432;-79
2022/06/26 11:52:58;;;;;;;2.10;1.90;;;23.30;99.90;;;;;;4918591;29;20499;-79
2022/06/26 11:55:25;;;;;;;2.40;2.17;;;23.20;99.90;;;;;;4918832;29;20436;-79
2022/06/26 11:57:54;;;;;;;4.53;2.20;;;23.20;99.90;;;;;;4918553;29;20783;-79
2022/06/26 12:00:21;;;;;;;3.10;2.50;;;23.30;99.90;;;;;;4918517;29;20487;-79
2022/06/26 12:02:48;;;;;;;3.53;2.27;;;23.30;99.90;;;;;;4901733;29;20955;-79
2022/06/26 12:05:20;;;;;;;3.80;3.50;;;23.20;99.90;;;;;;4918590;29;20440;-79
2022/06/26 12:07:48;;;;;;;2.53;2.17;;;23.40;99.90;;;;;;4918419;29;20838;-78
2022/06/26 12:10:32;;;;;;;2.97;1.90;;;23.40;99.90;;;;;;4918366;29;20442;-78
2022/06/26 12:12:59;;;;;;;6.23;2.67;;;23.50;99.90;;;;;;4918172;29;20444;-81
2022/06/26 12:15:25;;;;;;;3.50;2.20;;;23.40;99.90;;;;;;4918091;29;20523;-78
2022/06/26 12:17:53;;;;;;;4.20;2.40;;;23.20;99.90;;;;;;4918242;29;20431;-78
2022/06/26 12:20:18;;;;;;;1.40;1.30;;;23.20;99.90;;;;;;4918191;29;20479;-78
2022/06/26 12:22:50;;;;;;;3.77;2.23;;;23.20;99.90;;;;;;4918058;29;20955;-79
2022/06/26 12:25:33;;;;;;;2.93;2.67;;;23.20;99.90;;;;;;4917965;29;20575;-83
2022/06/26 12:27:59;;;;;;;2.53;2.00;;;23.20;99.90;;;;;;4917956;29;20427;-83
2022/06/26 12:30:33;;;;;;;4.93;2.30;;;23.20;99.90;;;;;;4918188;29;20984;-87
2022/06/26 12:33:00;;;;;;;2.90;2.20;;;23.10;99.90;;;;;;4919324;29;20436;-85
2022/06/26 12:35:27;;;;;;;2.87;2.00;;;23.10;99.90;;;;;;4923289;29;20438;-86
2022/06/26 12:37:53;;;;;;;2.60;2.40;;;23.10;99.90;;;;;;4922431;29;20874;-88
2022/06/26 12:40:20;;;;;;;4.77;2.40;;;23.20;99.90;;;;;;4918653;29;20986;-85
2022/06/26 12:42:46;;;;;;;2.27;1.80;;;23.20;99.90;;;;;;4918184;29;20424;-88
2022/06/26 12:45:12;;;;;;;8.07;2.40;;;23.20;99.90;;;;;;4918527;29;20467;-86
2022/06/26 12:47:38;;;;;;;2.10;1.90;;;23.10;99.90;;;;;;4917584;29;20434;-79
2022/06/26 12:50:05;;;;;;;2.17;1.63;;;23.00;99.90;;;;;;4917640;29;20176;-82
2022/06/26 12:52:32;;;;;;;2.10;1.90;;;23.10;99.90;;;;;;4918367;29;20428;-87
2022/06/26 12:54:59;;;;;;;5.80;2.77;;;22.90;99.90;;;;;;4919156;29;20428;-82
2022/06/26 12:57:24;;;;;;;2.90;1.87;;;23.00;99.90;;;;;;4919789;29;20420;-85
2022/06/26 12:59:50;;;;;;;3.53;2.30;;;23.00;99.90;;;;;;4919137;29;20550;-84
2022/06/26 13:02:15;;;;;;;3.17;2.23;;;23.10;99.90;;;;;;4917874;29;20176;-82
2022/06/26 13:04:41;;;;;;;3.80;2.00;;;23.10;99.90;;;;;;4917228;29;20180;-81
2022/06/26 13:07:06;;;;;;;2.72;1.70;;;23.00;99.90;;;;;;4917066;29;20430;-78
2022/06/26 13:09:32;;;;;;;3.63;2.00;;;23.00;99.90;;;;;;4917746;29;20187;-78
2022/06/26 13:11:58;;;;;;;1.90;1.80;;;23.00;99.90;;;;;;4917278;29;20176;-80
2022/06/26 13:14:23;;;;;;;2.53;1.93;;;23.00;99.90;;;;;;4918137;29;20196;-78
2022/06/26 13:16:49;;;;;;;2.33;2.00;;;22.90;99.90;;;;;;4917751;29;20192;-79
2022/06/26 13:19:15;;;;;;;4.73;1.80;;;22.80;99.90;;;;;;4918397;29;20345;-79
2022/06/26 13:21:43;;;;;;;2.07;1.90;;;22.80;99.90;;;;;;4916740;29;20187;-78
2022/06/26 13:24:10;;;;;;;3.07;2.37;;;22.80;99.90;;;;;;4919040;29;20195;-86
2022/06/26 13:26:38;;;;;;;4.13;2.50;;;22.90;99.90;;;;;;4917840;29;20924;-82
2022/06/26 13:29:03;;;;;;;4.03;2.23;;;22.90;99.90;;;;;;4912767;29;20440;-82
2022/06/26 13:31:29;;;;;;;1.93;1.83;;;22.90;99.90;;;;;;4916274;29;20478;-78
2022/06/26 13:33:55;;;;;;;2.07;1.87;;;22.90;99.90;;;;;;4916295;29;20267;-74
2022/06/26 13:36:20;;;;;;;2.17;1.90;;;22.90;99.90;;;;;;4916353;29;20175;-76
2022/06/26 13:38:46;;;;;;;2.60;2.27;;;22.90;99.90;;;;;;4915202;29;20518;-74
2022/06/26 13:41:13;;;;;;;3.80;1.83;;;23.00;99.90;;;;;;4908392;29;20280;-76
2022/06/26 13:43:38;;;;;;;2.80;2.13;;;23.00;99.90;;;;;;4907387;29;20211;-77
2022/06/26 13:46:04;;;;;;;3.43;2.00;;;23.10;99.90;;;;;;4907018;29;20842;-75
2022/06/26 13:48:29;;;;;;;2.20;2.00;;;23.10;99.90;;;;;;4906504;29;20190;-73
2022/06/26 13:50:56;;;;;;;2.30;1.70;;;23.10;99.90;;;;;;4909816;29;20343;-77
2022/06/26 13:53:22;;;;;;;3.60;2.10;;;23.10;99.90;;;;;;4905851;29;20510;-75
2022/06/26 13:55:50;;;;;;;2.87;2.57;;;23.00;99.90;;;;;;4907587;29;20194;-74
2022/06/26 13:58:16;;;;;;;3.13;1.80;;;23.00;99.90;;;;;;4916432;29;20243;-73
2022/06/26 14:00:41;;;;;;;2.03;1.93;;;22.90;99.90;;;;;;4916067;29;20487;-73
2022/06/26 14:03:07;;;;;;;3.77;2.90;;;22.90;99.90;;;;;;4914645;29;20423;-74
2022/06/26 14:05:32;;;;;;;2.40;1.97;;;22.80;99.90;;;;;;4909114;29;20622;-78
2022/06/26 14:07:58;;;;;;;3.77;1.67;;;22.80;99.90;;;;;;4917323;29;20262;-78
2022/06/26 14:10:24;;;;;;;2.17;1.97;;;22.90;99.90;;;;;;4916965;29;20187;-79
2022/06/26 14:12:49;;;;;;;4.30;2.13;;;22.80;99.90;;;;;;4917593;29;20719;-88
2022/06/26 14:15:15;;;;;;;3.47;2.47;;;22.80;99.90;;;;;;4917434;29;20658;-86
2022/06/26 14:17:41;;;;;;;5.43;2.80;;;22.80;99.90;;;;;;4917185;29;20188;-86
2022/06/26 14:20:07;;;;;;;3.47;2.67;;;22.70;99.90;;;;;;4917197;29;20311;-84
2022/06/26 14:28:01;;;;;;;5.93;2.40;;;22.70;99.90;;;;;;4917779;29;20495;-85
2022/06/26 14:30:27;;;;;;;3.37;2.30;;;22.60;99.90;;;;;;4917105;29;20436;-86
2022/06/26 14:32:52;;;;;;;7.03;2.60;;;22.70;99.90;;;;;;4917410;29;20199;-86
2022/06/26 14:35:19;;;;;;;6.90;2.43;;;22.80;99.90;;;;;;4917096;29;20204;-84
2022/06/26 14:37:44;;;;;;;4.20;2.83;;;22.80;99.90;;;;;;4917226;29;20190;-79
2022/06/26 14:40:11;;;;;;;2.73;2.10;;;22.80;99.90;;;;;;4916957;29;21003;-81
2022/06/26 14:42:43;;;;;;;3.03;2.57;;;22.80;99.90;;;;;;4916608;29;20465;-83
2022/06/26 14:45:09;;;;;;;5.17;2.43;;;22.80;99.90;;;;;;4916855;29;20436;-87
2022/06/26 14:47:35;;;;;;;2.63;2.43;;;22.70;99.90;;;;;;4916800;29;20432;-85
2022/06/26 14:50:03;;;;;;;2.73;2.53;;;22.70;99.90;;;;;;4917094;29;20974;-83
2022/06/26 14:52:29;;;;;;;2.50;2.30;;;22.60;99.90;;;;;;4916568;29;20699;-84
2022/06/26 14:54:55;;;;;;;4.97;2.53;;;22.60;99.90;;;;;;4916785;29;20514;-84
2022/06/26 14:57:21;;;;;;;2.90;2.40;;;22.60;99.90;;;;;;4916616;29;20183;-83
2022/06/26 14:59:46;;;;;;;3.17;2.93;;;22.60;99.90;;;;;;4916422;29;20219;-83
2022/06/26 15:02:12;;;;;;;4.43;3.20;;;22.50;99.90;;;;;;4916628;29;20176;-81
2022/06/26 15:04:38;;;;;;;2.90;2.60;;;22.50;99.90;;;;;;4916416;29;20188;-83
2022/06/26 15:07:04;;;;;;;3.63;2.67;;;22.50;99.90;;;;;;4916634;29;20420;-84
2022/06/26 15:09:29;;;;;;;6.13;3.27;;;22.40;99.90;;;;;;4916646;29;20263;-88
2022/06/26 15:11:55;;;;;;;3.00;2.80;;;22.40;99.90;;;;;;4916660;29;20176;-85
2022/06/26 15:14:21;;;;;;;5.47;2.90;;;22.40;99.90;;;;;;4916225;29;20187;-88
2022/06/26 15:16:49;;;;;;;3.40;2.50;;;22.40;99.90;;;;;;4911005;29;20176;-89
2022/06/26 15:19:15;;;;;;;2.80;2.60;;;22.30;99.90;;;;;;4906988;29;20548;-92
2022/06/26 15:21:41;;;;;;;4.00;2.57;;;22.30;99.90;;;;;;4912663;29;20797;-83
2022/06/26 15:24:07;;;;;;;4.20;2.37;;;22.20;99.90;;;;;;4897627;29;20436;-84
2022/06/26 15:26:32;;;;;;;2.53;2.33;;;22.20;99.90;;;;;;4897762;29;20641;-83
2022/06/26 15:28:58;;;;;;;4.30;2.90;;;22.30;99.90;;;;;;4901280;29;20187;-85
2022/06/26 15:31:23;;;;;;;3.40;2.50;;;22.30;99.90;;;;;;4901686;29;20236;-90
2022/06/26 15:33:49;;;;;;;2.70;2.40;;;22.20;99.90;;;;;;4901769;29;20181;-93
2022/06/26 15:36:15;;;;;;;4.20;3.07;;;22.20;99.90;;;;;;4901426;29;20248;-86
2022/06/26 15:38:41;;;;;;;2.57;2.10;;;22.20;99.90;;;;;;4902574;29;20184;-85
2022/06/26 15:41:06;;;;;;;2.70;2.47;;;22.20;99.90;;;;;;4901226;29;20220;-88
2022/06/26 15:43:32;;;;;;;4.17;2.77;;;22.20;99.90;;;;;;4901634;29;20267;-82
2022/06/26 15:45:58;;;;;;;5.13;2.63;;;22.20;99.90;;;;;;4900909;29;20243;-83
2022/06/26 15:48:25;;;;;;;5.17;3.53;;;22.10;99.90;;;;;;4903500;29;20591;-79
2022/06/26 15:50:50;;;;;;;3.17;2.37;;;22.10;99.90;;;;;;4913759;29;20188;-91
2022/06/26 15:53:16;;;;;;;4.73;2.47;;;22.20;99.90;;;;;;4915660;29;20460;-92
2022/06/26 15:55:41;;;;;;;5.77;2.60;;;22.10;99.90;;;;;;4902665;29;20589;-90
2022/06/26 15:58:07;;;;;;;3.03;2.70;;;22.10;99.90;;;;;;4900692;29;20644;-81
2022/06/26 16:00:32;;;;;;;5.13;3.20;;;22.10;99.90;;;;;;4899092;29;20564;-84
2022/06/26 16:02:58;;;;;;;4.03;3.30;;;22.10;99.90;;;;;;4900948;29;20192;-89
2022/06/26 16:05:24;;;;;;;5.90;2.60;;;22.00;99.90;;;;;;4900805;29;20181;-79
2022/06/26 16:07:49;;;;;;;2.77;2.50;;;22.00;99.90;;;;;;4900282;29;20188;-81